Time;durP1;ratioP1;P1;durP2;ratioP2;P2;SDS_P1;SDS_P2;PMS_P1;PMS_P2;Temp;Humidity;BMP_temperature;BMP_pressure;BME280_temperature;BME280_humidity;BME280_pressure;Samples;Min_cycle;Max_cycle;Signal;HPM_P1;HPM_P2
2024/01/06 00:01:00;;;;;;;17.40;5.22;;;15.70;92.20;;;;;;5033945;28;20034;-73
2024/01/06 00:03:26;;;;;;;13.13;4.70;;;15.80;92.30;;;;;;5033883;28;20030;-73
2024/01/06 00:05:52;;;;;;;17.60;4.95;;;15.70;92.50;;;;;;5033429;28;20457;-73
2024/01/06 00:08:18;;;;;;;19.20;5.32;;;15.70;92.20;;;;;;5020870;28;20033;-72
2024/01/06 00:10:43;;;;;;;15.70;4.82;;;15.70;92.30;;;;;;5013721;28;20034;-72
2024/01/06 00:13:10;;;;;;;15.60;5.18;;;15.70;92.30;;;;;;5021031;28;20076;-72
2024/01/06 00:15:36;;;;;;;16.58;4.82;;;15.70;92.40;;;;;;5033910;28;20061;-72
2024/01/06 00:18:02;;;;;;;16.13;5.45;;;15.70;92.60;;;;;;5033570;28;20163;-72
2024/01/06 00:20:28;;;;;;;16.30;5.28;;;15.70;92.40;;;;;;5033452;28;20096;-72
2024/01/06 00:22:53;;;;;;;17.70;5.53;;;15.70;92.50;;;;;;5033573;28;20037;-72
2024/01/06 00:25:19;;;;;;;13.15;4.53;;;15.70;92.50;;;;;;5017174;28;20113;-72
2024/01/06 00:27:45;;;;;;;19.48;4.93;;;15.70;92.60;;;;;;5016307;28;20113;-72
2024/01/06 00:30:11;;;;;;;15.63;4.50;;;15.70;92.60;;;;;;5033577;28;20041;-72
2024/01/06 00:32:36;;;;;;;18.63;5.68;;;15.70;92.70;;;;;;5033144;28;20037;-72
2024/01/06 00:35:02;;;;;;;19.80;4.57;;;15.70;92.60;;;;;;5033324;28;20029;-71
2024/01/06 00:37:28;;;;;;;18.48;5.57;;;15.70;92.70;;;;;;5033229;28;20128;-73
2024/01/06 00:39:54;;;;;;;19.52;5.78;;;15.70;92.80;;;;;;5033321;28;20164;-71
2024/01/06 00:42:19;;;;;;;17.13;4.90;;;15.70;92.80;;;;;;5027622;28;20060;-71
2024/01/06 00:44:45;;;;;;;21.15;5.60;;;15.70;92.90;;;;;;5032916;28;20033;-71
2024/01/06 00:47:11;;;;;;;20.40;6.45;;;15.70;92.90;;;;;;5032856;28;20037;-71
2024/01/06 00:49:37;;;;;;;24.20;5.57;;;15.70;93.00;;;;;;5032681;28;20144;-72
2024/01/06 00:52:03;;;;;;;22.35;5.47;;;15.70;93.00;;;;;;5033088;28;20037;-72
2024/01/06 00:54:29;;;;;;;22.58;6.07;;;15.70;93.10;;;;;;5032804;28;20044;-71
2024/01/06 00:56:54;;;;;;;22.25;5.47;;;15.70;93.10;;;;;;5032985;28;20073;-71
2024/01/06 00:59:20;;;;;;;26.98;6.60;;;15.70;93.20;;;;;;5032797;28;20496;-71
2024/01/06 01:01:46;;;;;;;24.25;6.07;;;15.70;93.30;;;;;;5033085;28;20037;-73
2024/01/06 01:04:11;;;;;;;27.90;6.43;;;15.70;93.30;;;;;;5032897;28;20408;-72
2024/01/06 01:06:37;;;;;;;27.08;5.97;;;15.70;93.30;;;;;;5033112;28;20034;-72
2024/01/06 01:09:04;;;;;;;21.77;6.72;;;15.70;93.40;;;;;;5032812;28;20110;-73
2024/01/06 01:11:30;;;;;;;22.27;6.03;;;15.70;93.40;;;;;;5032670;28;20069;-72
2024/01/06 01:13:56;;;;;;;27.63;5.63;;;15.70;93.50;;;;;;5032816;28;20440;-71
2024/01/06 01:16:22;;;;;;;25.70;5.72;;;15.70;93.50;;;;;;5032671;28;20030;-72
2024/01/06 01:18:47;;;;;;;24.33;6.28;;;15.70;93.60;;;;;;5032703;28;20038;-73
2024/01/06 01:21:14;;;;;;;26.00;6.03;;;15.70;93.60;;;;;;5032654;28;20033;-73
2024/01/06 01:23:39;;;;;;;22.08;6.05;;;15.70;93.60;;;;;;5032387;28;20025;-72
2024/01/06 01:26:05;;;;;;;27.90;5.72;;;15.70;93.70;;;;;;5014977;28;20036;-73
2024/01/06 01:28:31;;;;;;;23.13;6.18;;;15.70;93.70;;;;;;5032520;28;20116;-71
2024/01/06 01:30:57;;;;;;;22.15;5.95;;;15.70;93.80;;;;;;5032237;28;20037;-71
2024/01/06 01:33:23;;;;;;;20.80;5.32;;;15.70;93.80;;;;;;5032536;28;20535;-73
2024/01/06 01:35:48;;;;;;;23.92;6.35;;;15.70;93.90;;;;;;5032463;28;20038;-71
2024/01/06 01:38:14;;;;;;;24.27;6.38;;;15.70;94.00;;;;;;5032058;28;20045;-72
2024/01/06 01:40:40;;;;;;;25.95;6.32;;;15.70;94.00;;;;;;5014686;28;20497;-72
2024/01/06 01:43:06;;;;;;;20.17;5.43;;;15.70;94.10;;;;;;5033521;28;20477;-72
2024/01/06 01:45:32;;;;;;;25.23;6.55;;;15.70;94.10;;;;;;5036338;28;20057;-72
2024/01/06 01:47:58;;;;;;;26.52;6.93;;;15.60;94.10;;;;;;5036094;28;20455;-72
2024/01/06 01:50:27;;;;;;;23.55;6.35;;;15.60;94.20;;;;;;5036668;28;20034;-72
2024/01/06 01:52:53;;;;;;;25.15;6.63;;;15.60;94.50;;;;;;5036277;28;20330;-72
2024/01/06 01:55:18;;;;;;;22.42;6.22;;;15.60;94.30;;;;;;5035968;28;20500;-72
2024/01/06 01:57:44;;;;;;;23.40;6.10;;;15.60;94.30;;;;;;5036294;28;20114;-71
2024/01/06 02:00:11;;;;;;;18.88;5.47;;;15.60;94.40;;;;;;5036230;28;20034;-72
2024/01/06 02:02:36;;;;;;;22.08;6.40;;;15.60;94.40;;;;;;5036053;28;20083;-71
2024/01/06 02:05:03;;;;;;;27.48;6.35;;;15.60;94.40;;;;;;5036407;28;20030;-73
2024/01/06 02:07:28;;;;;;;22.02;6.75;;;15.60;94.60;;;;;;5036434;28;20576;-71
2024/01/06 02:09:54;;;;;;;20.38;6.00;;;15.60;94.40;;;;;;5036194;28;20027;-71
2024/01/06 02:12:20;;;;;;;24.90;6.78;;;15.60;94.50;;;;;;5035950;28;20034;-71
2024/01/06 02:14:45;;;;;;;24.98;6.55;;;15.60;94.50;;;;;;5018054;28;20034;-71
2024/01/06 02:17:11;;;;;;;24.02;6.72;;;15.60;94.60;;;;;;5035764;28;20049;-71
2024/01/06 02:19:37;;;;;;;21.73;5.32;;;15.60;94.60;;;;;;5035846;28;20034;-72
2024/01/06 02:22:03;;;;;;;27.08;6.80;;;15.60;94.70;;;;;;5035735;28;20447;-70
2024/01/06 02:24:28;;;;;;;26.15;7.30;;;15.60;94.70;;;;;;5035662;28;20076;-73
2024/01/06 02:26:54;;;;;;;27.13;7.18;;;15.60;94.80;;;;;;5035856;28;20092;-72
2024/01/06 02:29:20;;;;;;;22.67;5.63;;;15.60;94.80;;;;;;5035745;28;20069;-72
2024/01/06 02:31:45;;;;;;;26.77;5.90;;;15.60;94.70;;;;;;5035729;28;20057;-73
2024/01/06 02:34:11;;;;;;;19.65;5.60;;;15.60;94.80;;;;;;5035798;28;20048;-73
2024/01/06 02:36:37;;;;;;;23.38;6.45;;;15.60;94.70;;;;;;5035046;28;20495;-72
2024/01/06 02:39:02;;;;;;;28.33;6.40;;;15.60;94.60;;;;;;5035397;28;20045;-72
2024/01/06 02:41:28;;;;;;;20.17;5.18;;;15.60;94.70;;;;;;5035466;28;20034;-72
2024/01/06 02:43:56;;;;;;;18.95;5.70;;;15.60;94.70;;;;;;5035204;28;20041;-71
2024/01/06 02:46:22;;;;;;;22.88;6.10;;;15.60;94.70;;;;;;5035088;28;20535;-70
2024/01/06 02:48:47;;;;;;;28.77;6.80;;;15.60;94.60;;;;;;5035214;28;20184;-71
2024/01/06 02:51:13;;;;;;;27.55;6.40;;;15.60;94.50;;;;;;5035236;28;20400;-72
2024/01/06 02:53:38;;;;;;;22.55;6.25;;;15.60;94.70;;;;;;5035010;28;20033;-72
2024/01/06 02:56:09;;;;;;;23.58;5.93;;;15.60;94.60;;;;;;5035661;28;20034;-71
2024/01/06 02:58:34;;;;;;;25.00;6.70;;;15.60;94.70;;;;;;5034975;28;20111;-73
2024/01/06 03:01:00;;;;;;;24.35;5.47;;;15.60;94.70;;;;;;5035085;28;20564;-71
2024/01/06 03:03:26;;;;;;;27.55;6.43;;;15.60;94.70;;;;;;5035112;28;20057;-72
2024/01/06 03:05:51;;;;;;;26.63;6.25;;;15.50;94.70;;;;;;5035017;28;20022;-73
2024/01/06 03:08:17;;;;;;;24.17;6.07;;;15.50;94.80;;;;;;5034951;28;20564;-73
2024/01/06 03:10:43;;;;;;;27.10;6.05;;;15.50;94.80;;;;;;5035023;28;20145;-72
2024/01/06 03:13:09;;;;;;;22.92;5.18;;;15.50;94.80;;;;;;5034824;28;20385;-72
2024/01/06 03:15:34;;;;;;;17.05;5.63;;;15.50;94.80;;;;;;5034710;28;20052;-72
2024/01/06 03:18:00;;;;;;;19.90;5.97;;;15.50;94.80;;;;;;5034845;28;20657;-72
2024/01/06 03:20:26;;;;;;;25.60;6.20;;;15.50;94.80;;;;;;5034913;28;20025;-71
2024/01/06 03:22:51;;;;;;;24.38;6.18;;;15.50;94.80;;;;;;5034972;28;20037;-72
2024/01/06 03:25:17;;;;;;;22.08;5.90;;;15.50;94.80;;;;;;5034653;28;20041;-72
2024/01/06 03:27:43;;;;;;;20.75;5.05;;;15.50;94.80;;;;;;5034582;28;20037;-72
2024/01/06 03:30:09;;;;;;;15.65;5.80;;;15.50;94.80;;;;;;5034668;28;20493;-71
2024/01/06 03:32:35;;;;;;;18.60;5.63;;;15.50;94.80;;;;;;5034386;28;20060;-72
2024/01/06 03:35:01;;;;;;;22.13;5.20;;;15.50;94.80;;;;;;5034452;28;20042;-72
2024/01/06 03:37:26;;;;;;;20.52;5.43;;;15.40;94.70;;;;;;5034455;28;20091;-72
2024/01/06 03:39:52;;;;;;;18.23;4.43;;;15.40;94.70;;;;;;5034460;28;20036;-72
2024/01/06 03:42:18;;;;;;;17.70;5.07;;;15.40;94.70;;;;;;5034118;28;20072;-72
2024/01/06 03:44:44;;;;;;;22.52;5.03;;;15.40;94.70;;;;;;5033986;28;20026;-72
2024/01/06 03:47:09;;;;;;;16.48;4.68;;;15.40;94.70;;;;;;5034319;28;20045;-72
2024/01/06 03:49:35;;;;;;;16.10;4.63;;;15.30;94.60;;;;;;5034129;28;20108;-71
2024/01/06 03:52:01;;;;;;;14.70;4.32;;;15.30;94.50;;;;;;5034073;28;20045;-72
2024/01/06 03:54:26;;;;;;;15.23;4.50;;;15.30;94.50;;;;;;5034230;28;20030;-72
2024/01/06 03:56:52;;;;;;;16.70;4.28;;;15.30;94.40;;;;;;5033823;28;20049;-71
2024/01/06 03:59:18;;;;;;;12.93;4.13;;;15.30;94.40;;;;;;5034260;28;20524;-71
2024/01/06 04:01:43;;;;;;;15.88;4.18;;;15.30;94.40;;;;;;5033912;28;20053;-72
2024/01/06 04:04:09;;;;;;;18.58;4.10;;;15.30;94.30;;;;;;5016253;28;20034;-71
2024/01/06 04:06:35;;;;;;;13.07;3.95;;;15.30;94.20;;;;;;5033424;28;20129;-71
2024/01/06 04:09:01;;;;;;;12.90;3.47;;;15.20;94.10;;;;;;5034035;28;20037;-72
2024/01/06 04:11:27;;;;;;;14.70;3.70;;;15.20;94.10;;;;;;5033548;28;20037;-71
2024/01/06 04:13:53;;;;;;;14.18;3.72;;;15.20;94.10;;;;;;5033848;28;20489;-72
2024/01/06 04:16:19;;;;;;;15.20;4.00;;;15.20;94.10;;;;;;5033807;28;20288;-72
2024/01/06 04:18:45;;;;;;;16.85;3.78;;;15.20;94.10;;;;;;5033893;28;20029;-72
2024/01/06 04:21:11;;;;;;;12.93;3.38;;;15.20;94.00;;;;;;5033353;28;20454;-72
2024/01/06 04:23:37;;;;;;;9.60;3.22;;;15.20;94.00;;;;;;5033461;28;20137;-72
2024/01/06 04:26:04;;;;;;;9.13;3.10;;;15.20;93.90;;;;;;5033332;28;20049;-71
2024/01/06 04:28:30;;;;;;;10.63;3.42;;;15.20;93.90;;;;;;5015961;28;20037;-71
2024/01/06 04:30:56;;;;;;;10.63;3.38;;;15.20;93.80;;;;;;5033046;28;20037;-72
2024/01/06 04:33:22;;;;;;;16.65;3.97;;;15.20;93.80;;;;;;5033141;28;20076;-73
2024/01/06 04:35:47;;;;;;;13.35;3.50;;;15.20;93.80;;;;;;5033273;28;20101;-73
2024/01/06 04:38:13;;;;;;;12.88;3.50;;;15.20;93.80;;;;;;5033256;28;20434;-71
2024/01/06 04:40:39;;;;;;;13.80;3.25;;;15.20;93.80;;;;;;5033041;28;20034;-72
2024/01/06 04:43:04;;;;;;;14.52;3.50;;;15.20;93.70;;;;;;5033149;28;20030;-71
2024/01/06 04:45:30;;;;;;;18.65;3.85;;;15.20;93.50;;;;;;5032991;28;20124;-72
2024/01/06 22:48:05;;;;;;;19.02;12.25;;;14.20;88.50;;;;;;5032491;28;20084;-75
2024/01/06 22:50:31;;;;;;;18.20;12.50;;;14.10;88.90;;;;;;4955448;28;20077;-75
2024/01/06 22:52:57;;;;;;;20.95;12.57;;;14.10;89.00;;;;;;4957030;29;20123;-75
2024/01/06 22:55:23;;;;;;;20.05;12.57;;;14.10;89.50;;;;;;4971901;28;20027;-75
2024/01/06 22:57:49;;;;;;;15.75;11.77;;;14.10;89.70;;;;;;4956971;29;20455;-75
2024/01/06 23:00:15;;;;;;;23.05;15.50;;;14.10;89.90;;;;;;4955231;28;20039;-74
2024/01/06 23:02:41;;;;;;;23.10;14.93;;;14.10;90.00;;;;;;4954463;28;20454;-74
2024/01/06 23:05:08;;;;;;;23.25;12.60;;;14.20;90.10;;;;;;4955194;28;20027;-75
2024/01/06 23:07:34;;;;;;;21.15;11.13;;;14.10;90.20;;;;;;4956876;29;20122;-75
2024/01/06 23:10:00;;;;;;;17.75;11.45;;;14.10;90.10;;;;;;4956540;29;20070;-76
2024/01/06 23:12:25;;;;;;;15.27;11.32;;;14.10;90.20;;;;;;4956051;28;20038;-75
2024/01/06 23:14:51;;;;;;;18.88;11.23;;;14.20;90.30;;;;;;4956825;29;20039;-74
2024/01/06 23:17:17;;;;;;;21.02;11.30;;;14.20;90.40;;;;;;4956672;29;20426;-74
2024/01/06 23:19:44;;;;;;;17.85;12.05;;;14.20;90.50;;;;;;4956545;29;20403;-74
2024/01/06 23:22:10;;;;;;;16.45;10.95;;;14.20;90.50;;;;;;4956647;29;20031;-75
2024/01/06 23:24:36;;;;;;;16.15;10.60;;;14.20;90.50;;;;;;4939387;29;20039;-74
2024/01/06 23:27:02;;;;;;;17.30;10.73;;;14.20;90.60;;;;;;4956461;29;20478;-75
2024/01/06 23:29:28;;;;;;;16.88;10.38;;;14.20;90.60;;;;;;4956706;29;20031;-74
2024/01/06 23:31:54;;;;;;;17.35;10.57;;;14.20;90.50;;;;;;4956478;29;20067;-74
2024/01/06 23:34:19;;;;;;;16.88;9.70;;;14.20;90.60;;;;;;4960230;29;20043;-74
2024/01/06 23:36:45;;;;;;;18.25;10.98;;;14.20;90.50;;;;;;4958432;29;20042;-75
2024/01/06 23:39:11;;;;;;;19.55;11.80;;;14.20;90.60;;;;;;4956738;29;20047;-74
2024/01/06 23:41:36;;;;;;;25.75;12.45;;;14.20;90.60;;;;;;4956214;29;20102;-74
2024/01/06 23:44:02;;;;;;;19.38;13.32;;;14.20;90.60;;;;;;4956226;29;20110;-74
2024/01/06 23:46:28;;;;;;;21.70;12.73;;;14.20;90.70;;;;;;4955918;29;20059;-75
2024/01/06 23:48:53;;;;;;;21.08;13.52;;;14.20;90.70;;;;;;4962861;28;20047;-75
2024/01/06 23:51:19;;;;;;;20.50;13.23;;;14.20;90.60;;;;;;4975275;28;20034;-74
2024/01/06 23:53:45;;;;;;;21.58;13.70;;;14.30;90.70;;;;;;4975287;28;20042;-74
2024/01/06 23:56:11;;;;;;;27.30;13.98;;;14.30;91.00;;;;;;4975149;28;20034;-74
2024/01/06 23:58:37;;;;;;;18.48;13.25;;;14.20;90.60;;;;;;4975297;28;20050;-76
